createdAt,value
2022-08-22T00:00:07.283Z,99.99
2022-08-22T00:01:07.809Z,99.99
2022-08-22T00:02:08.920Z,99.99
2022-08-22T00:02:51.735Z,99.99
2022-08-22T00:03:14.214Z,99.99
2022-08-22T00:03:39.538Z,99.99
2022-08-22T00:04:26.976Z,99.99
2022-08-22T00:05:28.299Z,99.99
2022-08-22T00:06:28.495Z,99.99
2022-08-22T00:07:29.415Z,99.99
2022-08-22T00:08:30.330Z,99.99
2022-08-22T00:09:31.368Z,99.99
2022-08-22T00:10:31.859Z,99.99
2022-08-22T00:11:32.357Z,99.99
2022-08-22T00:12:32.499Z,99.99
2022-08-22T00:13:33.420Z,99.99
2022-08-22T00:14:34.139Z,99.99
2022-08-22T00:15:48.596Z,99.99
2022-08-22T00:16:34.797Z,99.99
2022-08-22T00:17:35.022Z,99.99
2022-08-22T00:18:35.640Z,99.99
2022-08-22T00:19:36.284Z,99.99
2022-08-22T00:20:37.197Z,99.99
2022-08-22T00:21:38.115Z,99.99
2022-08-22T00:22:38.934Z,99.99
2022-08-22T00:23:39.878Z,99.99
2022-08-22T00:24:40.874Z,99.99
2022-08-22T00:25:41.491Z,99.99
2022-08-22T00:26:45.379Z,99.99
2022-08-22T00:27:50.473Z,99.99
2022-08-22T00:28:43.791Z,99.99
2022-08-22T00:29:45.154Z,99.99
2022-08-22T00:30:45.675Z,99.99
2022-08-22T00:31:45.591Z,99.99
2022-08-22T00:32:46.813Z,99.99
2022-08-22T00:33:46.711Z,99.99
2022-08-22T00:34:47.767Z,99.99
2022-08-22T00:35:50.698Z,99.99
2022-08-22T00:36:53.370Z,99.99
2022-08-22T00:37:49.409Z,99.99
2022-08-22T00:38:49.650Z,99.99
2022-08-22T00:39:50.445Z,99.99
2022-08-22T00:40:51.302Z,99.99
2022-08-22T00:41:52.216Z,99.99
2022-08-22T00:42:53.166Z,99.99
2022-08-22T00:43:53.056Z,99.99
2022-08-22T00:44:54.325Z,99.99
2022-08-22T00:45:55.913Z,99.99
2022-08-22T00:46:55.828Z,99.99
2022-08-22T00:47:56.661Z,99.99
2022-08-22T00:48:57.510Z,99.99
2022-08-22T00:49:57.451Z,99.99
2022-08-22T00:50:57.642Z,99.99
2022-08-22T00:51:58.585Z,99.99
2022-08-22T00:53:01.677Z,99.99
2022-08-22T00:53:59.169Z,99.99
2022-08-22T00:55:00.220Z,99.99
2022-08-22T00:56:00.834Z,99.99
2022-08-22T00:57:01.474Z,99.99
2022-08-22T00:58:02.332Z,99.99
2022-08-22T00:59:08.499Z,99.99
2022-08-22T01:00:02.941Z,99.99
2022-08-22T01:01:03.254Z,99.99
2022-08-22T01:02:03.885Z,99.99
2022-08-22T01:03:04.783Z,99.99
2022-08-22T01:04:05.409Z,99.99
2022-08-22T01:05:06.080Z,99.99
2022-08-22T01:06:06.494Z,99.99
2022-08-22T01:07:06.811Z,99.99
2022-08-22T01:08:07.025Z,99.99
2022-08-22T01:09:07.949Z,99.99
2022-08-22T01:10:08.862Z,99.99
2022-08-22T01:11:09.478Z,99.99
2022-08-22T01:12:10.094Z,99.99
2022-08-22T01:13:11.037Z,99.99
2022-08-22T01:14:11.220Z,99.99
2022-08-22T01:15:11.083Z,99.99
2022-08-22T01:16:12.292Z,99.99
2022-08-22T01:17:12.929Z,99.99
2022-08-22T01:18:13.826Z,99.99
2022-08-22T01:19:14.019Z,99.99
2022-08-22T01:20:14.649Z,99.99
2022-08-22T01:21:15.273Z,99.99
2022-08-22T01:22:16.107Z,99.99
2022-08-22T01:23:16.309Z,99.99
2022-08-22T01:24:17.237Z,99.99
2022-08-22T01:25:18.353Z,99.99
2022-08-22T01:26:19.458Z,99.99
2022-08-22T01:27:19.656Z,99.99
2022-08-22T01:28:23.250Z,99.99
2022-08-22T01:29:27.835Z,99.99
2022-08-22T01:30:23.412Z,99.99
2022-08-22T01:31:21.655Z,99.99
2022-08-22T01:32:22.574Z,99.99
2022-08-22T01:33:22.772Z,99.99
2022-08-22T01:34:23.085Z,99.99
2022-08-22T01:35:23.552Z,99.99
2022-08-22T01:36:24.466Z,99.99
2022-08-22T01:37:24.670Z,99.99
2022-08-22T01:38:25.299Z,99.99
2022-08-22T01:39:25.493Z,99.99
2022-08-22T01:40:26.300Z,99.99
2022-08-22T01:41:26.131Z,99.99
2022-08-22T01:42:26.349Z,99.99
2022-08-22T01:44:04.336Z,99.99
2022-08-22T01:44:26.831Z,99.99
2022-08-22T01:45:26.834Z,99.99
2022-08-22T01:46:27.477Z,99.99
2022-08-22T01:47:28.115Z,99.99
2022-08-22T01:48:28.625Z,99.99
2022-08-22T01:49:29.456Z,99.99
2022-08-22T01:50:29.646Z,99.99
2022-08-22T01:51:30.255Z,99.99
2022-08-22T01:52:30.870Z,99.99
2022-08-22T01:53:33.672Z,99.99
2022-08-22T01:54:32.565Z,99.99
2022-08-22T01:55:32.731Z,99.99
2022-08-22T01:56:33.363Z,99.99
2022-08-22T01:57:33.553Z,99.99
2022-08-22T01:58:33.748Z,99.99
2022-08-22T01:59:42.187Z,99.99
2022-08-22T02:00:41.176Z,99.99
2022-08-22T02:01:36.258Z,99.99
2022-08-22T02:02:36.450Z,99.99
2022-08-22T02:03:36.783Z,99.99
2022-08-22T02:04:37.125Z,99.99
2022-08-22T02:05:37.545Z,99.99
2022-08-22T02:06:37.440Z,99.99
2022-08-22T02:07:37.638Z,99.99
2022-08-22T02:08:38.534Z,99.99
2022-08-22T02:09:39.450Z,99.99
2022-08-22T02:10:40.145Z,99.99
2022-08-22T02:11:41.065Z,99.99
2022-08-22T02:12:40.961Z,99.99
2022-08-22T02:13:41.899Z,99.99
2022-08-22T02:14:42.095Z,99.99
2022-08-22T02:15:43.810Z,99.99
2022-08-22T02:16:43.508Z,99.99
2022-08-22T02:17:44.425Z,99.99
2022-08-22T02:18:44.706Z,99.99
2022-08-22T02:19:44.744Z,99.99
2022-08-22T02:20:45.380Z,99.99
2022-08-22T02:21:46.586Z,99.99
2022-08-22T02:22:49.920Z,99.99
2022-08-22T02:23:47.841Z,99.99
2022-08-22T02:24:48.243Z,99.99
2022-08-22T02:25:48.940Z,99.99
2022-08-22T02:26:49.579Z,99.99
2022-08-22T02:27:49.501Z,99.99
2022-08-22T02:29:02.498Z,99.99
2022-08-22T02:29:50.438Z,99.99
2022-08-22T02:30:51.058Z,99.99
2022-08-22T02:31:51.383Z,99.99
2022-08-22T02:32:52.298Z,99.99
2022-08-22T02:33:53.215Z,99.99
2022-08-22T02:34:54.535Z,99.99
2022-08-22T02:35:54.930Z,99.99
2022-08-22T02:36:58.113Z,99.99
2022-08-22T02:37:57.096Z,99.99
2022-08-22T02:38:58.270Z,99.99
2022-08-22T02:39:58.971Z,99.99
2022-08-22T02:40:59.818Z,99.99
2022-08-22T02:42:01.033Z,99.99
2022-08-22T02:43:01.652Z,99.99
2022-08-22T02:44:01.548Z,99.99
2022-08-22T02:45:02.614Z,99.99
2022-08-22T02:46:02.311Z,99.99
2022-08-22T02:47:02.952Z,99.99
2022-08-22T02:48:04.132Z,99.99
2022-08-22T02:49:04.046Z,99.99
2022-08-22T02:50:05.085Z,99.99
2022-08-22T02:51:05.601Z,99.99
2022-08-22T02:52:06.526Z,99.99
2022-08-22T02:53:06.879Z,99.99
2022-08-22T02:54:07.967Z,99.99
2022-08-22T02:55:08.717Z,99.99
2022-08-22T02:56:08.861Z,99.99
2022-08-22T02:57:14.104Z,99.99
2022-08-22T02:58:10.058Z,99.99
2022-08-22T02:59:10.551Z,99.99
2022-08-22T03:00:32.191Z,99.99
2022-08-22T03:01:11.390Z,99.99
2022-08-22T03:02:11.594Z,99.99
2022-08-22T03:03:11.784Z,99.99
2022-08-22T03:04:11.993Z,99.99
2022-08-22T03:05:12.678Z,99.99
2022-08-22T03:06:13.363Z,99.99
2022-08-22T03:07:13.436Z,99.99
2022-08-22T03:08:14.727Z,99.99
2022-08-22T03:09:15.006Z,99.99
2022-08-22T03:10:16.220Z,99.99
2022-08-22T03:11:16.415Z,99.99
2022-08-22T03:12:17.053Z,99.99
2022-08-22T03:13:17.268Z,99.99
2022-08-22T03:14:17.883Z,99.99
2022-08-22T03:15:18.502Z,99.99
2022-08-22T03:16:19.208Z,99.99
2022-08-22T03:17:20.129Z,99.99
2022-08-22T03:18:21.041Z,99.99
2022-08-22T03:19:24.158Z,99.99
2022-08-22T03:20:21.470Z,99.99
2022-08-22T03:21:22.661Z,99.99
2022-08-22T03:22:23.714Z,99.99
2022-08-22T03:23:24.323Z,99.99
2022-08-22T03:24:24.949Z,99.99
2022-08-22T03:25:24.845Z,99.99
2022-08-22T03:26:25.463Z,99.99
2022-08-22T03:27:38.613Z,99.99
2022-08-22T03:28:26.714Z,99.99
2022-08-22T03:29:26.930Z,99.99
2022-08-22T03:30:27.847Z,99.99
2022-08-22T03:31:27.744Z,99.99
2022-08-22T03:32:28.940Z,99.99
2022-08-22T03:33:29.857Z,99.99
2022-08-22T03:34:30.192Z,99.99
2022-08-22T03:35:30.753Z,99.99
2022-08-22T03:36:31.197Z,99.99
2022-08-22T03:37:31.092Z,99.99
2022-08-22T03:38:31.996Z,99.99
2022-08-22T03:39:31.888Z,99.99
2022-08-22T03:40:36.986Z,99.99
2022-08-22T03:41:33.627Z,99.99
2022-08-22T03:42:34.245Z,99.99
2022-08-22T03:43:34.866Z,99.99
2022-08-22T03:44:36.098Z,99.99
2022-08-22T03:45:36.711Z,99.99
2022-08-22T03:46:37.270Z,99.99
2022-08-22T03:47:38.483Z,99.99
2022-08-22T03:48:38.703Z,99.99
2022-08-22T03:49:39.344Z,99.99
2022-08-22T03:50:39.850Z,99.99
2022-08-22T03:51:40.108Z,99.99
2022-08-22T03:52:40.307Z,99.99
2022-08-22T03:53:40.797Z,99.99
2022-08-22T03:54:41.717Z,99.99
2022-08-22T03:55:43.335Z,99.99
2022-08-22T03:56:42.757Z,99.99
2022-08-22T03:57:43.083Z,99.99
2022-08-22T03:58:43.977Z,99.99
2022-08-22T03:59:47.987Z,99.99
2022-08-22T04:00:46.447Z,99.99
2022-08-22T04:01:46.671Z,99.99
2022-08-22T04:02:49.284Z,99.99
2022-08-22T04:03:47.500Z,99.99
2022-08-22T04:04:47.680Z,99.99
2022-08-22T04:05:49.130Z,99.99
2022-08-22T04:06:53.719Z,99.99
2022-08-22T04:07:50.898Z,99.99
2022-08-22T04:08:50.128Z,99.99
2022-08-22T04:09:54.007Z,99.99
2022-08-22T04:10:51.900Z,99.99
2022-08-22T04:11:53.031Z,99.99
2022-08-22T04:12:54.226Z,99.99
2022-08-22T04:13:54.439Z,99.99
2022-08-22T04:14:54.651Z,99.99
2022-08-22T04:15:54.982Z,99.99
2022-08-22T04:16:55.559Z,99.99
2022-08-22T04:17:55.898Z,99.99
2022-08-22T04:18:57.440Z,99.99
2022-08-22T04:19:57.345Z,99.99
2022-08-22T04:20:57.963Z,99.99
2022-08-22T04:21:59.158Z,99.99
2022-08-22T04:22:59.797Z,99.99
2022-08-22T04:24:00.991Z,99.99
2022-08-22T04:25:04.765Z,99.99
2022-08-22T04:26:08.268Z,99.99
2022-08-22T04:27:03.220Z,99.99
2022-08-22T04:28:03.592Z,99.99
2022-08-22T04:29:03.484Z,99.99
2022-08-22T04:30:04.699Z,99.99
2022-08-22T04:31:04.896Z,99.99
2022-08-22T04:32:05.536Z,99.99
2022-08-22T04:33:06.207Z,99.99
2022-08-22T04:34:06.926Z,99.99
2022-08-22T04:35:07.840Z,99.99
2022-08-22T04:36:08.861Z,99.99
2022-08-22T04:37:09.433Z,99.99
2022-08-22T04:38:10.055Z,99.99
2022-08-22T04:39:10.548Z,99.99
2022-08-22T04:40:11.323Z,99.99
2022-08-22T04:41:11.302Z,99.99
2022-08-22T04:42:35.892Z,99.99
2022-08-22T04:43:13.110Z,99.99
2022-08-22T04:44:13.423Z,99.99
2022-08-22T04:45:13.868Z,99.99
2022-08-22T04:46:14.523Z,99.99
2022-08-22T04:47:15.764Z,99.99
2022-08-22T04:48:16.262Z,99.99
2022-08-22T04:49:16.753Z,99.99
2022-08-22T04:50:16.974Z,99.99
2022-08-22T04:51:17.602Z,99.99
2022-08-22T04:52:18.534Z,99.99
2022-08-22T04:53:18.703Z,99.99
2022-08-22T04:54:19.323Z,99.99
2022-08-22T04:55:20.523Z,99.99
2022-08-22T04:56:21.147Z,99.99
2022-08-22T04:57:21.127Z,99.99
2022-08-22T04:58:21.622Z,99.99
2022-08-22T04:59:22.541Z,99.99
2022-08-22T05:00:23.166Z,99.99
2022-08-22T05:01:23.366Z,99.99
2022-08-22T05:02:24.599Z,99.99
2022-08-22T05:03:25.219Z,99.99
2022-08-22T05:04:25.453Z,99.99
2022-08-22T05:05:25.376Z,99.99
2022-08-22T05:06:26.395Z,99.99
2022-08-22T05:07:26.392Z,99.99
2022-08-22T05:08:26.774Z,99.99
2022-08-22T05:09:27.637Z,99.99
2022-08-22T05:10:26.984Z,99.99
2022-08-22T05:11:28.175Z,99.99
2022-08-22T05:12:29.119Z,99.99
2022-08-22T05:13:29.951Z,99.99
2022-08-22T05:14:30.712Z,99.99
2022-08-22T05:15:31.791Z,99.99
2022-08-22T05:16:31.995Z,99.99
2022-08-22T05:17:32.714Z,99.99
2022-08-22T05:18:35.159Z,99.99
2022-08-22T05:19:37.659Z,99.99
2022-08-22T05:20:34.966Z,99.99
2022-08-22T05:21:35.431Z,99.99
2022-08-22T05:22:35.333Z,99.99
2022-08-22T05:23:36.255Z,99.99
2022-08-22T05:24:36.449Z,99.99
2022-08-22T05:25:37.311Z,99.99
2022-08-22T05:26:37.240Z,99.99
2022-08-22T05:27:37.559Z,99.99
2022-08-22T05:28:38.180Z,99.99
2022-08-22T05:29:38.887Z,99.99
2022-08-22T05:30:39.811Z,99.99
2022-08-22T05:31:40.041Z,99.99
2022-08-22T05:32:40.967Z,99.99
2022-08-22T05:33:41.589Z,99.99
2022-08-22T05:34:42.515Z,99.99
2022-08-22T05:35:46.029Z,99.99
2022-08-22T05:36:43.506Z,99.99
2022-08-22T05:37:43.773Z,99.99
2022-08-22T05:38:44.469Z,99.99
2022-08-22T05:39:45.726Z,99.99
2022-08-22T05:40:46.629Z,99.99
2022-08-22T05:41:47.268Z,99.99
2022-08-22T05:42:47.170Z,99.99
2022-08-22T05:43:47.622Z,99.99
2022-08-22T05:44:48.546Z,99.99
2022-08-22T05:45:48.752Z,99.99
2022-08-22T05:46:49.679Z,99.99
2022-08-22T05:47:50.398Z,99.99
2022-08-22T05:48:50.717Z,99.99
2022-08-22T05:49:51.657Z,99.99
2022-08-22T05:50:55.989Z,99.99
2022-08-22T05:51:51.887Z,99.99
2022-08-22T05:52:52.655Z,99.99
2022-08-22T05:53:53.002Z,99.99
2022-08-22T05:54:53.622Z,99.99
2022-08-22T05:55:54.267Z,99.99
2022-08-22T05:56:54.887Z,99.99
2022-08-22T05:57:54.819Z,99.99
2022-08-22T05:58:55.274Z,99.99
2022-08-22T05:59:55.430Z,99.99
2022-08-22T06:00:56.125Z,99.99
2022-08-22T06:01:56.739Z,99.99
2022-08-22T06:02:57.284Z,99.99
2022-08-22T06:03:57.501Z,99.99
2022-08-22T06:04:57.711Z,99.99
2022-08-22T06:05:58.331Z,99.99
2022-08-22T06:06:59.407Z,99.99
2022-08-22T06:08:00.544Z,99.99
2022-08-22T06:09:01.098Z,99.99
2022-08-22T06:10:02.019Z,99.99
2022-08-22T06:11:02.213Z,99.99
2022-08-22T06:12:04.350Z,99.99
2022-08-22T06:13:03.695Z,99.99
2022-08-22T06:14:04.396Z,99.99
2022-08-22T06:15:11.764Z,99.99
2022-08-22T06:16:05.022Z,99.99
2022-08-22T06:17:05.853Z,99.99
2022-08-22T06:18:06.845Z,99.99
2022-08-22T06:19:19.154Z,99.99
2022-08-22T06:20:08.103Z,99.99
2022-08-22T06:21:08.725Z,99.99
2022-08-22T06:22:10.134Z,99.99
2022-08-22T06:23:10.319Z,99.99
2022-08-22T06:24:10.550Z,99.99
2022-08-22T06:25:11.408Z,99.99
2022-08-22T06:26:26.088Z,99.99
2022-08-22T06:27:12.011Z,99.99
2022-08-22T06:28:12.521Z,99.99
2022-08-22T06:29:13.146Z,99.99
2022-08-22T06:30:14.065Z,99.99
2022-08-22T06:31:14.991Z,99.99
2022-08-22T06:32:15.905Z,99.99
2022-08-22T06:33:18.143Z,99.99
2022-08-22T06:34:17.166Z,99.99
2022-08-22T06:35:17.654Z,99.99
2022-08-22T06:36:21.253Z,99.99
2022-08-22T06:37:18.183Z,99.99
2022-08-22T06:38:18.732Z,99.99
2022-08-22T06:39:19.344Z,99.99
2022-08-22T06:40:20.030Z,99.99
2022-08-22T06:41:20.622Z,99.99
2022-08-22T06:42:22.365Z,99.99
2022-08-22T06:43:21.005Z,99.99
2022-08-22T06:44:22.215Z,99.99
2022-08-22T06:45:23.206Z,99.99
2022-08-22T06:46:24.104Z,99.99
2022-08-22T06:47:25.130Z,99.99
2022-08-22T06:48:26.058Z,99.99
2022-08-22T06:49:26.271Z,99.99
2022-08-22T06:50:27.473Z,99.99
2022-08-22T06:51:29.328Z,99.99
2022-08-22T06:52:29.291Z,99.99
2022-08-22T06:53:29.813Z,99.99
2022-08-22T06:54:34.226Z,99.99
2022-08-22T06:55:31.392Z,99.99
2022-08-22T06:56:31.300Z,98.34
2022-08-22T06:57:31.665Z,98.44
2022-08-22T06:58:36.415Z,99.99
2022-08-22T06:59:48.249Z,99.4
2022-08-22T07:00:34.073Z,99.98
2022-08-22T07:01:34.825Z,99.69
2022-08-22T07:02:35.048Z,99.21
2022-08-22T07:03:36.276Z,99.11
2022-08-22T07:04:36.475Z,99.99
2022-08-22T07:05:37.698Z,99.93
2022-08-22T07:06:37.908Z,98.77
2022-08-22T07:07:38.544Z,98.49
2022-08-22T07:08:44.023Z,97.62
2022-08-22T07:09:39.683Z,96.99
2022-08-22T07:10:40.609Z,95.54
2022-08-22T07:11:40.816Z,95.16
2022-08-22T07:12:41.319Z,95.54
2022-08-22T07:13:41.973Z,94.58
2022-08-22T07:14:42.179Z,94.15
2022-08-22T07:15:42.702Z,92.41
2022-08-22T07:16:43.356Z,92.32
2022-08-22T07:17:46.169Z,93.37
2022-08-22T07:18:44.614Z,92.99
2022-08-22T07:19:44.555Z,92.5
2022-08-22T07:20:45.063Z,91.39
2022-08-22T07:21:45.451Z,89.27
2022-08-22T07:22:46.095Z,88.89
2022-08-22T07:23:46.478Z,89.37
2022-08-22T07:24:46.247Z,92.16
2022-08-22T07:25:46.880Z,92.41
2022-08-22T07:26:48.082Z,93.95
2022-08-22T07:27:54.278Z,94.48
2022-08-22T07:29:07.843Z,95.31
2022-08-22T07:30:05.956Z,96.08
2022-08-22T07:31:06.180Z,98.49
2022-08-22T07:32:06.231Z,98.68
2022-08-22T07:33:31.884Z,99.99
2022-08-22T07:34:07.838Z,99.99
2022-08-22T07:35:08.063Z,99.99
2022-08-22T07:36:08.267Z,99.99
2022-08-22T07:37:08.897Z,99.99
2022-08-22T07:38:10.087Z,99.99
2022-08-22T07:39:10.125Z,99.99
2022-08-22T07:40:10.288Z,99.99
2022-08-22T07:41:10.527Z,99.99
2022-08-22T07:42:11.464Z,99.99
2022-08-22T07:43:12.676Z,99.99
2022-08-22T07:44:12.601Z,99.99
2022-08-22T07:45:13.692Z,99.99
2022-08-22T07:46:15.060Z,99.99
2022-08-22T07:47:14.961Z,99.99
2022-08-22T07:48:25.008Z,99.99
2022-08-22T07:49:35.981Z,99.99
2022-08-22T07:50:36.378Z,99.99
2022-08-22T07:51:37.006Z,99.99
2022-08-22T07:52:38.355Z,99.99
2022-08-22T07:53:38.998Z,99.99
2022-08-22T07:54:40.062Z,99.99
2022-08-22T07:55:55.219Z,99.99
2022-08-22T07:56:41.152Z,99.99
2022-08-22T07:57:41.356Z,99.99
2022-08-22T07:58:42.280Z,99.99
2022-08-22T07:59:42.580Z,99.99
2022-08-22T08:00:43.251Z,99.99
2022-08-22T08:01:44.347Z,99.99
2022-08-22T08:02:44.235Z,99.99
2022-08-22T08:03:46.623Z,99.99
2022-08-22T08:04:45.969Z,99.99
2022-08-22T08:05:46.177Z,99.99
2022-08-22T08:06:46.537Z,99.99
2022-08-22T08:07:46.616Z,99.99
2022-08-22T08:08:47.494Z,99.99
2022-08-22T08:09:48.506Z,99.99
2022-08-22T08:10:49.111Z,99.99
2022-08-22T08:11:50.097Z,99.99
2022-08-22T08:13:07.005Z,99.99
2022-08-22T08:13:51.510Z,99.99
2022-08-22T08:14:52.151Z,99.99
2022-08-22T08:15:53.073Z,99.99
2022-08-22T08:16:53.290Z,99.99
2022-08-22T08:17:53.792Z,99.99
2022-08-22T08:18:54.037Z,99.99
2022-08-22T08:19:54.785Z,99.99
2022-08-22T08:20:55.365Z,99.99
2022-08-22T08:21:55.277Z,99.99
2022-08-22T08:22:56.207Z,99.99
2022-08-22T08:23:56.436Z,99.99
2022-08-22T08:24:56.953Z,99.99
2022-08-22T08:25:59.306Z,99.99
2022-08-22T08:26:58.238Z,99.99
2022-08-22T08:27:59.301Z,99.99
2022-08-22T08:28:59.945Z,99.99
2022-08-22T08:30:00.974Z,99.99
2022-08-22T08:31:01.494Z,99.99
2022-08-22T08:32:02.417Z,99.99
2022-08-22T08:33:30.582Z,99.84
2022-08-22T08:34:03.548Z,98.77
2022-08-22T08:35:04.171Z,98
2022-08-22T08:36:08.293Z,96.94
2022-08-22T08:37:05.495Z,95.36
2022-08-22T08:38:06.851Z,85.75
2022-08-22T08:39:07.179Z,85.89
2022-08-22T08:40:07.891Z,86.76
2022-08-22T08:41:08.676Z,87.97
2022-08-22T08:42:08.793Z,88.02
2022-08-22T08:43:10.857Z,89.07
2022-08-22T08:44:09.904Z,90.23
2022-08-22T08:45:09.840Z,95.25
2022-08-22T08:46:11.401Z,93.23
2022-08-22T08:47:11.331Z,93.23
2022-08-22T08:48:11.479Z,92.74
2022-08-22T08:49:12.417Z,92.94
2022-08-22T08:50:15.006Z,91.11
2022-08-22T08:51:14.467Z,91.01
2022-08-22T08:52:14.417Z,91.44
2022-08-22T08:53:16.055Z,90.09
2022-08-22T08:54:15.336Z,86.79
2022-08-22T08:55:27.901Z,81.32
2022-08-22T08:56:19.708Z,81.12
2022-08-22T08:57:17.067Z,79.8
2022-08-22T08:58:17.836Z,80.36
2022-08-22T08:59:17.231Z,75.65
2022-08-22T09:00:18.361Z,75.3
2022-08-22T09:01:19.578Z,73.94
2022-08-22T09:04:23.190Z,68.99
2022-08-22T09:05:25.163Z,69.13
2022-08-22T09:06:24.869Z,68.44
2022-08-22T09:07:25.318Z,67.5
2022-08-22T09:08:27.639Z,67.02
2022-08-22T09:09:26.632Z,66.99
2022-08-22T09:10:32.750Z,66.11
2022-08-22T09:11:34.128Z,64.69
2022-08-22T09:12:29.223Z,65.01
2022-08-22T09:13:28.966Z,63.29
2022-08-22T09:14:32.628Z,64.17
2022-08-22T09:15:30.913Z,64.07
2022-08-22T09:16:31.646Z,63.48
2022-08-22T09:17:33.598Z,62.32
2022-08-22T09:18:33.133Z,62.12
2022-08-22T09:19:33.454Z,62.05
2022-08-22T09:20:34.369Z,61.66
2022-08-22T09:21:37.040Z,62.02
2022-08-22T09:25:45.570Z,61.83
2022-08-22T09:26:40.574Z,61.72
2022-08-22T09:27:41.129Z,59.09
2022-08-22T09:28:41.658Z,59.84
2022-08-22T09:30:02.672Z,60.23
2022-08-22T09:30:42.308Z,59.55
2022-08-22T09:32:00.113Z,60.42
2022-08-22T09:32:45.726Z,61.33
2022-08-22T09:33:44.114Z,61.24
2022-08-22T09:34:44.759Z,59.77
2022-08-22T09:35:45.210Z,57.85
2022-08-22T09:36:45.344Z,57.98
2022-08-22T09:37:45.701Z,57.91
2022-08-22T09:38:53.221Z,55.76
2022-08-22T09:39:47.097Z,56.08
2022-08-22T09:40:47.823Z,55.59
2022-08-22T09:41:48.026Z,55.83
2022-08-22T09:42:51.790Z,56.77
2022-08-22T09:43:53.920Z,58.67
2022-08-22T09:44:50.277Z,59.64
2022-08-22T09:45:52.505Z,58.77
2022-08-22T09:46:51.151Z,58.6
2022-08-22T09:47:51.528Z,58.22
2022-08-22T09:48:52.642Z,58.04
2022-08-22T09:49:53.669Z,57.26
2022-08-22T09:51:08.361Z,55.51
2022-08-22T09:51:56.290Z,55.8
2022-08-22T09:52:55.772Z,56.65
2022-08-22T09:53:58.678Z,57.82
2022-08-22T09:54:57.478Z,57.63
2022-08-22T09:55:58.109Z,56.75
2022-08-22T09:56:59.612Z,55.68
2022-08-22T09:58:01.186Z,56.82
2022-08-22T09:59:02.558Z,57.31
2022-08-22T10:00:03.570Z,58.48
2022-08-22T10:01:01.841Z,59.23
2022-08-22T10:02:02.979Z,59.39
2022-08-22T10:03:06.775Z,61.31
2022-08-22T10:04:04.537Z,62.26
2022-08-22T10:05:04.580Z,61.74
2022-08-22T10:06:05.821Z,61.93
2022-08-22T10:07:11.574Z,62.48
2022-08-22T10:08:06.509Z,62.38
2022-08-22T10:09:08.818Z,62.48
2022-08-22T10:10:07.321Z,62.61
2022-08-22T10:11:11.944Z,62
2022-08-22T10:12:12.347Z,60.93
2022-08-22T10:13:16.045Z,60.31
2022-08-22T10:14:10.853Z,60.05
2022-08-22T10:15:12.673Z,60.93
2022-08-22T10:16:15.533Z,60.86
2022-08-22T10:17:13.093Z,57.49
2022-08-22T10:18:15.650Z,58.65
2022-08-22T10:19:14.290Z,56.84
2022-08-22T10:20:15.290Z,56.45
2022-08-22T10:21:15.642Z,56.05
2022-08-22T10:22:16.645Z,54.69
2022-08-22T10:23:17.249Z,55.18
2022-08-22T10:24:30.400Z,55.37
2022-08-22T10:25:18.478Z,55.66
2022-08-22T10:26:28.502Z,55.74
2022-08-22T10:27:20.985Z,55.41
2022-08-22T10:28:22.082Z,57.56
2022-08-22T10:29:22.434Z,56.68
2022-08-22T10:30:23.345Z,56.07
2022-08-22T10:31:23.580Z,57.33
2022-08-22T10:32:32.448Z,60.86
2022-08-22T10:33:29.138Z,59.33
2022-08-22T10:34:28.139Z,58.78
2022-08-22T10:35:26.052Z,54.72
2022-08-22T10:36:26.539Z,52.97
2022-08-22T10:37:29.424Z,52.67
2022-08-22T10:38:30.752Z,53.52
2022-08-22T10:39:28.479Z,54.57
2022-08-22T10:40:29.525Z,53.59
2022-08-22T10:41:30.709Z,55.83
2022-08-22T10:42:35.205Z,55.44
2022-08-22T10:43:34.284Z,54.96
2022-08-22T10:44:31.224Z,55.44
2022-08-22T10:45:41.993Z,54.47
2022-08-22T10:46:32.349Z,55.74
2022-08-22T10:47:32.433Z,55.64
2022-08-22T10:48:32.581Z,55.35
2022-08-22T10:49:34.884Z,55.44
2022-08-22T10:50:36.665Z,57.22
2022-08-22T10:51:34.331Z,57.32
2022-08-22T10:52:36.083Z,54.52
2022-08-22T10:53:36.316Z,53.72
2022-08-22T10:54:39.523Z,54.89
2022-08-22T10:55:38.020Z,54.4
2022-08-22T10:56:39.290Z,54.21
2022-08-22T10:57:39.265Z,55.47
2022-08-22T10:58:39.821Z,54.89
2022-08-22T10:59:40.862Z,54.69
2022-08-22T11:00:41.045Z,55.66
2022-08-22T11:01:47.743Z,57.61
2022-08-22T11:02:47.688Z,55.89
2022-08-22T11:03:45.311Z,53.85
2022-08-22T11:04:45.583Z,53.85
2022-08-22T11:05:50.046Z,53.72
2022-08-22T11:06:49.950Z,51.94
2022-08-22T11:07:53.897Z,54.64
2022-08-22T11:08:48.885Z,54.66
2022-08-22T11:09:48.777Z,53.77
2022-08-22T11:10:48.989Z,54.74
2022-08-22T11:11:50.162Z,58.36
2022-08-22T11:12:50.164Z,59.33
2022-08-22T11:13:54.843Z,60.5
2022-08-22T11:14:52.421Z,58.59
2022-08-22T11:15:56.313Z,59.59
2022-08-22T11:17:00.672Z,58.13
2022-08-22T11:18:18.946Z,58.25
2022-08-22T11:19:20.909Z,59.42
2022-08-22T11:20:19.993Z,57.89
2022-08-22T11:21:20.776Z,56.11
2022-08-22T11:22:21.315Z,56.67
2022-08-22T11:23:22.028Z,57.32
2022-08-22T11:24:46.673Z,59.82
2022-08-22T11:25:41.730Z,60.44
2022-08-22T11:26:46.879Z,59.89
2022-08-22T11:27:30.686Z,59.86
2022-08-22T11:28:29.650Z,61.02
2022-08-22T11:29:29.834Z,61.61
2022-08-22T11:30:31.460Z,61.8
2022-08-22T11:31:31.694Z,62.07
2022-08-22T11:32:31.910Z,60.8
2022-08-22T11:33:52.473Z,58.76
2022-08-22T11:34:32.561Z,58.54
2022-08-22T11:35:32.961Z,59.19
2022-08-22T11:36:36.482Z,60.52
2022-08-22T11:37:48.575Z,62.36
2022-08-22T11:38:48.347Z,62.62
2022-08-22T11:39:50.151Z,63.53
2022-08-22T11:40:49.664Z,65.17
2022-08-22T11:41:57.766Z,65.17
2022-08-22T11:42:53.160Z,62.68
2022-08-22T11:43:52.325Z,59.61
2022-08-22T11:44:55.895Z,61.55
2022-08-22T11:45:52.817Z,61.65
2022-08-22T11:46:52.938Z,61.77
2022-08-22T11:47:53.831Z,61.77
2022-08-22T11:48:54.947Z,58.59
2022-08-22T11:49:56.793Z,55
2022-08-22T11:50:56.315Z,55.19
2022-08-22T11:51:56.677Z,54.71
2022-08-22T11:52:57.652Z,55.68
2022-08-22T11:53:58.151Z,57.36
2022-08-22T11:54:58.658Z,57.17
2022-08-22T11:55:59.465Z,57.46
2022-08-22T11:57:00.314Z,53.77
2022-08-22T11:58:01.070Z,56.97
2022-08-22T11:59:02.385Z,55.8
2022-08-22T12:00:03.274Z,55.54
2022-08-22T12:01:03.731Z,52.53
2022-08-22T12:02:04.886Z,54.18
2022-08-22T12:03:05.256Z,56
2022-08-22T12:04:05.365Z,55.8
2022-08-22T12:05:05.765Z,54.86
2022-08-22T12:06:06.150Z,55.54
2022-08-22T12:07:06.454Z,57.49
2022-08-22T12:08:08.038Z,55.27
2022-08-22T12:09:08.442Z,53.72
2022-08-22T12:10:13.656Z,54.76
2022-08-22T12:11:09.990Z,55.35
2022-08-22T12:12:10.327Z,52.14
2022-08-22T12:13:10.806Z,52.5
2022-08-22T12:14:11.940Z,52.67
2022-08-22T12:15:14.609Z,53
2022-08-22T12:16:12.869Z,54.34
2022-08-22T12:17:21.291Z,55.69
2022-08-22T12:18:26.808Z,54.34
2022-08-22T12:19:32.651Z,57.54
2022-08-22T12:20:26.145Z,58.34
2022-08-22T12:21:27.598Z,59.44
2022-08-22T12:22:28.832Z,57.4
2022-08-22T12:23:49.858Z,57.33
2022-08-22T12:24:28.134Z,57.17
2022-08-22T12:25:28.361Z,57.46
2022-08-22T12:26:29.554Z,53.69
2022-08-22T12:27:34.689Z,56.03
2022-08-22T12:28:30.353Z,57.1
2022-08-22T12:29:40.140Z,56.9
2022-08-22T12:30:31.300Z,57.61
2022-08-22T12:31:32.238Z,58.2
2022-08-22T12:32:33.098Z,58.36
2022-08-22T12:33:33.098Z,58.17
2022-08-22T12:34:32.755Z,59.11
2022-08-22T12:35:35.906Z,58.23
2022-08-22T12:36:34.934Z,55.61
2022-08-22T12:37:37.220Z,55.39
2022-08-22T12:38:38.283Z,56.07
2022-08-22T12:39:35.647Z,56.85
2022-08-22T12:40:36.725Z,57.21
2022-08-22T12:41:40.326Z,59.05
2022-08-22T12:42:37.656Z,59.74
2022-08-22T12:43:40.480Z,59.18
2022-08-22T12:44:39.160Z,57.82
2022-08-22T12:45:40.362Z,56.85
2022-08-22T12:46:46.711Z,57.72
2022-08-22T12:47:42.207Z,56.56
2022-08-22T12:48:42.644Z,56.75
2022-08-22T12:49:42.407Z,58.5
2022-08-22T12:50:42.223Z,59.86
2022-08-22T12:51:44.961Z,59.57
2022-08-22T12:52:44.422Z,55.8
2022-08-22T12:53:44.216Z,53.86
2022-08-22T12:54:45.016Z,54.52
2022-08-22T12:55:45.380Z,55.75
2022-08-22T12:56:52.663Z,55.46
2022-08-22T12:57:50.411Z,56.04
2022-08-22T12:58:50.442Z,55.65
2022-08-22T12:59:47.713Z,57.96
2022-08-22T13:00:50.390Z,58.64
2022-08-22T13:01:49.555Z,58.9
2022-08-22T13:02:49.668Z,60.25
2022-08-22T13:03:50.436Z,61.81
2022-08-22T13:04:51.106Z,62.16
2022-08-22T13:06:05.256Z,62.26